sensor_id;sensor_type;location;lat;lon;timestamp;P1;durP1;ratioP1;P2;durP2;ratioP2
16735;SDS011;17990;49.548;9.730;2022-10-18T00:01:14;11.50;;;6.93;;
16735;SDS011;17990;49.548;9.730;2022-10-18T00:03:41;13.07;;;7.00;;
16735;SDS011;17990;49.548;9.730;2022-10-18T00:06:10;14.47;;;7.93;;
16735;SDS011;17990;49.548;9.730;2022-10-18T00:08:37;11.40;;;7.83;;
16735;SDS011;17990;49.548;9.730;2022-10-18T00:11:05;14.27;;;7.47;;
16735;SDS011;17990;49.548;9.730;2022-10-18T00:13:32;13.03;;;6.77;;
16735;SDS011;17990;49.548;9.730;2022-10-18T00:16:00;13.47;;;7.33;;
16735;SDS011;17990;49.548;9.730;2022-10-18T00:18:30;12.77;;;6.67;;
16735;SDS011;17990;49.548;9.730;2022-10-18T00:20:58;15.67;;;7.50;;
16735;SDS011;17990;49.548;9.730;2022-10-18T00:23:29;15.30;;;7.00;;
16735;SDS011;17990;49.548;9.730;2022-10-18T00:25:58;13.90;;;6.43;;
16735;SDS011;17990;49.548;9.730;2022-10-18T00:28:27;19.10;;;7.23;;
16735;SDS011;17990;49.548;9.730;2022-10-18T00:30:54;17.07;;;7.20;;
16735;SDS011;17990;49.548;9.730;2022-10-18T00:33:21;17.80;;;7.43;;
16735;SDS011;17990;49.548;9.730;2022-10-18T00:35:48;18.40;;;7.33;;
16735;SDS011;17990;49.548;9.730;2022-10-18T00:38:15;14.10;;;6.80;;
16735;SDS011;17990;49.548;9.730;2022-10-18T00:40:43;17.47;;;7.40;;
16735;SDS011;17990;49.548;9.730;2022-10-18T00:43:12;12.03;;;6.70;;
16735;SDS011;17990;49.548;9.730;2022-10-18T00:45:41;13.33;;;7.57;;
16735;SDS011;17990;49.548;9.730;2022-10-18T00:48:08;11.33;;;7.77;;
16735;SDS011;17990;49.548;9.730;2022-10-18T00:50:37;17.93;;;7.97;;
16735;SDS011;17990;49.548;9.730;2022-10-18T00:53:06;13.83;;;7.63;;
16735;SDS011;17990;49.548;9.730;2022-10-18T00:55:38;14.10;;;6.93;;
16735;SDS011;17990;49.548;9.730;2022-10-18T00:58:06;9.87;;;6.67;;
16735;SDS011;17990;49.548;9.730;2022-10-18T01:00:34;13.67;;;7.27;;
16735;SDS011;17990;49.548;9.730;2022-10-18T01:03:04;9.67;;;6.90;;
16735;SDS011;17990;49.548;9.730;2022-10-18T01:05:40;8.13;;;6.23;;
16735;SDS011;17990;49.548;9.730;2022-10-18T01:11:17;10.97;;;6.27;;
16735;SDS011;17990;49.548;9.730;2022-10-18T01:14:24;12.10;;;6.70;;
16735;SDS011;17990;49.548;9.730;2022-10-18T01:17:05;12.37;;;6.60;;
16735;SDS011;17990;49.548;9.730;2022-10-18T01:19:52;16.20;;;6.77;;
16735;SDS011;17990;49.548;9.730;2022-10-18T01:23:18;10.80;;;6.73;;
16735;SDS011;17990;49.548;9.730;2022-10-18T01:25:52;15.80;;;7.03;;
16735;SDS011;17990;49.548;9.730;2022-10-18T01:28:35;13.07;;;7.23;;
16735;SDS011;17990;49.548;9.730;2022-10-18T01:31:18;16.83;;;7.47;;
16735;SDS011;17990;49.548;9.730;2022-10-18T01:33:49;8.97;;;6.50;;
16735;SDS011;17990;49.548;9.730;2022-10-18T01:36:22;13.90;;;7.50;;
16735;SDS011;17990;49.548;9.730;2022-10-18T01:38:55;13.57;;;7.23;;
16735;SDS011;17990;49.548;9.730;2022-10-18T01:41:26;13.13;;;6.57;;
16735;SDS011;17990;49.548;9.730;2022-10-18T01:43:55;8.37;;;6.17;;
16735;SDS011;17990;49.548;9.730;2022-10-18T01:46:25;13.93;;;6.47;;
16735;SDS011;17990;49.548;9.730;2022-10-18T01:48:54;11.57;;;6.13;;
16735;SDS011;17990;49.548;9.730;2022-10-18T01:51:23;10.87;;;6.13;;
16735;SDS011;17990;49.548;9.730;2022-10-18T01:53:51;10.17;;;5.37;;
16735;SDS011;17990;49.548;9.730;2022-10-18T01:56:23;9.70;;;5.73;;
16735;SDS011;17990;49.548;9.730;2022-10-18T02:01:52;9.87;;;5.90;;
16735;SDS011;17990;49.548;9.730;2022-10-18T02:04:29;9.77;;;5.20;;
16735;SDS011;17990;49.548;9.730;2022-10-18T02:07:06;11.10;;;5.07;;
16735;SDS011;17990;49.548;9.730;2022-10-18T02:09:43;16.17;;;5.43;;
16735;SDS011;17990;49.548;9.730;2022-10-18T02:12:17;11.97;;;5.50;;
16735;SDS011;17990;49.548;9.730;2022-10-18T02:14:45;8.27;;;4.87;;
16735;SDS011;17990;49.548;9.730;2022-10-18T02:17:14;9.50;;;5.40;;
16735;SDS011;17990;49.548;9.730;2022-10-18T02:19:44;11.13;;;5.30;;
16735;SDS011;17990;49.548;9.730;2022-10-18T02:22:15;10.63;;;5.03;;
16735;SDS011;17990;49.548;9.730;2022-10-18T02:24:45;8.80;;;5.07;;
16735;SDS011;17990;49.548;9.730;2022-10-18T02:27:15;10.30;;;5.07;;
16735;SDS011;17990;49.548;9.730;2022-10-18T02:29:42;11.67;;;5.03;;
16735;SDS011;17990;49.548;9.730;2022-10-18T02:32:11;10.40;;;4.73;;
16735;SDS011;17990;49.548;9.730;2022-10-18T02:34:45;7.10;;;4.97;;
16735;SDS011;17990;49.548;9.730;2022-10-18T02:37:20;14.57;;;5.17;;
16735;SDS011;17990;49.548;9.730;2022-10-18T02:39:48;18.60;;;5.77;;
16735;SDS011;17990;49.548;9.730;2022-10-18T02:42:16;10.13;;;4.60;;
16735;SDS011;17990;49.548;9.730;2022-10-18T02:44:43;10.07;;;4.90;;
16735;SDS011;17990;49.548;9.730;2022-10-18T02:47:10;8.97;;;5.17;;
16735;SDS011;17990;49.548;9.730;2022-10-18T02:49:39;10.20;;;4.57;;
16735;SDS011;17990;49.548;9.730;2022-10-18T02:52:06;7.77;;;4.77;;
16735;SDS011;17990;49.548;9.730;2022-10-18T02:54:33;8.57;;;4.43;;
16735;SDS011;17990;49.548;9.730;2022-10-18T02:56:59;17.73;;;5.23;;
16735;SDS011;17990;49.548;9.730;2022-10-18T02:59:26;11.47;;;4.60;;
16735;SDS011;17990;49.548;9.730;2022-10-18T03:01:53;10.93;;;4.27;;
16735;SDS011;17990;49.548;9.730;2022-10-18T03:04:20;11.03;;;4.90;;
16735;SDS011;17990;49.548;9.730;2022-10-18T03:06:48;9.60;;;4.77;;
16735;SDS011;17990;49.548;9.730;2022-10-18T03:09:15;11.43;;;4.97;;
16735;SDS011;17990;49.548;9.730;2022-10-18T03:11:42;8.67;;;4.90;;
16735;SDS011;17990;49.548;9.730;2022-10-18T03:14:09;11.40;;;4.80;;
16735;SDS011;17990;49.548;9.730;2022-10-18T03:16:36;11.30;;;5.53;;
16735;SDS011;17990;49.548;9.730;2022-10-18T03:19:03;8.13;;;5.33;;
16735;SDS011;17990;49.548;9.730;2022-10-18T03:21:29;7.60;;;4.83;;
16735;SDS011;17990;49.548;9.730;2022-10-18T03:23:58;15.47;;;5.30;;
16735;SDS011;17990;49.548;9.730;2022-10-18T03:26:25;9.60;;;4.63;;
16735;SDS011;17990;49.548;9.730;2022-10-18T03:28:51;11.17;;;4.83;;
16735;SDS011;17990;49.548;9.730;2022-10-18T03:31:19;8.93;;;4.90;;
16735;SDS011;17990;49.548;9.730;2022-10-18T03:33:46;7.13;;;5.03;;
16735;SDS011;17990;49.548;9.730;2022-10-18T03:36:13;6.87;;;4.87;;
16735;SDS011;17990;49.548;9.730;2022-10-18T03:38:40;14.53;;;6.10;;
16735;SDS011;17990;49.548;9.730;2022-10-18T03:41:08;12.93;;;5.57;;
16735;SDS011;17990;49.548;9.730;2022-10-18T03:43:35;8.90;;;5.90;;
16735;SDS011;17990;49.548;9.730;2022-10-18T03:46:02;10.33;;;5.33;;
16735;SDS011;17990;49.548;9.730;2022-10-18T03:48:29;10.20;;;5.30;;
16735;SDS011;17990;49.548;9.730;2022-10-18T03:50:56;11.03;;;4.90;;
16735;SDS011;17990;49.548;9.730;2022-10-18T03:53:23;9.53;;;4.30;;
16735;SDS011;17990;49.548;9.730;2022-10-18T03:55:50;8.07;;;4.90;;
16735;SDS011;17990;49.548;9.730;2022-10-18T03:58:19;8.10;;;5.00;;
16735;SDS011;17990;49.548;9.730;2022-10-18T04:00:47;12.43;;;5.30;;
16735;SDS011;17990;49.548;9.730;2022-10-18T04:03:15;10.53;;;5.50;;
16735;SDS011;17990;49.548;9.730;2022-10-18T04:05:42;10.40;;;4.70;;
16735;SDS011;17990;49.548;9.730;2022-10-18T04:08:10;13.50;;;6.00;;
16735;SDS011;17990;49.548;9.730;2022-10-18T04:10:37;9.80;;;4.93;;
16735;SDS011;17990;49.548;9.730;2022-10-18T04:13:04;12.57;;;4.87;;
16735;SDS011;17990;49.548;9.730;2022-10-18T04:15:33;10.47;;;4.80;;
16735;SDS011;17990;49.548;9.730;2022-10-18T04:18:00;11.83;;;5.47;;
16735;SDS011;17990;49.548;9.730;2022-10-18T04:20:28;10.13;;;5.33;;
16735;SDS011;17990;49.548;9.730;2022-10-18T04:22:55;9.57;;;5.50;;
16735;SDS011;17990;49.548;9.730;2022-10-18T04:25:22;16.17;;;5.93;;
16735;SDS011;17990;49.548;9.730;2022-10-18T04:27:50;11.73;;;5.70;;
16735;SDS011;17990;49.548;9.730;2022-10-18T04:30:17;11.33;;;5.27;;
16735;SDS011;17990;49.548;9.730;2022-10-18T04:32:45;12.57;;;4.87;;
16735;SDS011;17990;49.548;9.730;2022-10-18T04:35:12;13.17;;;5.83;;
16735;SDS011;17990;49.548;9.730;2022-10-18T04:37:39;12.93;;;5.10;;
16735;SDS011;17990;49.548;9.730;2022-10-18T04:40:06;12.67;;;5.07;;
16735;SDS011;17990;49.548;9.730;2022-10-18T04:42:34;18.30;;;7.30;;
16735;SDS011;17990;49.548;9.730;2022-10-18T04:45:01;14.07;;;5.07;;
16735;SDS011;17990;49.548;9.730;2022-10-18T04:47:28;6.97;;;4.80;;
16735;SDS011;17990;49.548;9.730;2022-10-18T04:49:57;11.70;;;4.77;;
16735;SDS011;17990;49.548;9.730;2022-10-18T04:52:24;9.43;;;5.03;;
16735;SDS011;17990;49.548;9.730;2022-10-18T04:54:51;8.27;;;5.00;;
16735;SDS011;17990;49.548;9.730;2022-10-18T04:57:17;11.57;;;5.97;;
16735;SDS011;17990;49.548;9.730;2022-10-18T04:59:44;10.13;;;6.00;;
16735;SDS011;17990;49.548;9.730;2022-10-18T05:02:11;20.87;;;5.70;;
16735;SDS011;17990;49.548;9.730;2022-10-18T05:04:38;16.17;;;6.20;;
16735;SDS011;17990;49.548;9.730;2022-10-18T05:07:06;14.23;;;5.87;;
16735;SDS011;17990;49.548;9.730;2022-10-18T05:09:33;5.70;;;4.70;;
16735;SDS011;17990;49.548;9.730;2022-10-18T05:12:00;10.10;;;5.20;;
16735;SDS011;17990;49.548;9.730;2022-10-18T05:14:27;11.67;;;5.00;;
16735;SDS011;17990;49.548;9.730;2022-10-18T05:16:54;13.13;;;5.93;;
16735;SDS011;17990;49.548;9.730;2022-10-18T05:19:21;14.30;;;6.67;;
16735;SDS011;17990;49.548;9.730;2022-10-18T05:21:47;7.23;;;5.07;;
16735;SDS011;17990;49.548;9.730;2022-10-18T05:24:16;11.30;;;5.67;;
16735;SDS011;17990;49.548;9.730;2022-10-18T05:26:43;18.97;;;9.10;;
16735;SDS011;17990;49.548;9.730;2022-10-18T05:29:10;11.43;;;5.43;;
16735;SDS011;17990;49.548;9.730;2022-10-18T05:31:37;18.33;;;11.33;;
16735;SDS011;17990;49.548;9.730;2022-10-18T05:34:04;16.00;;;6.10;;
16735;SDS011;17990;49.548;9.730;2022-10-18T05:36:31;7.90;;;5.30;;
16735;SDS011;17990;49.548;9.730;2022-10-18T05:38:58;7.90;;;5.37;;
16735;SDS011;17990;49.548;9.730;2022-10-18T05:41:26;14.40;;;6.60;;
16735;SDS011;17990;49.548;9.730;2022-10-18T05:43:53;15.43;;;7.57;;
16735;SDS011;17990;49.548;9.730;2022-10-18T05:46:20;17.03;;;9.77;;
16735;SDS011;17990;49.548;9.730;2022-10-18T05:48:48;28.27;;;19.20;;
16735;SDS011;17990;49.548;9.730;2022-10-18T05:51:16;29.07;;;20.60;;
16735;SDS011;17990;49.548;9.730;2022-10-18T05:53:43;11.60;;;9.00;;
16735;SDS011;17990;49.548;9.730;2022-10-18T05:56:10;10.83;;;6.70;;
16735;SDS011;17990;49.548;9.730;2022-10-18T05:58:39;12.30;;;6.10;;
16735;SDS011;17990;49.548;9.730;2022-10-18T06:01:06;10.77;;;6.07;;
16735;SDS011;17990;49.548;9.730;2022-10-18T06:03:35;13.97;;;6.27;;
16735;SDS011;17990;49.548;9.730;2022-10-18T06:06:02;11.93;;;6.77;;
16735;SDS011;17990;49.548;9.730;2022-10-18T06:08:32;16.67;;;8.57;;
16735;SDS011;17990;49.548;9.730;2022-10-18T06:11:04;53.77;;;25.73;;
16735;SDS011;17990;49.548;9.730;2022-10-18T06:13:32;22.23;;;12.47;;
16735;SDS011;17990;49.548;9.730;2022-10-18T06:16:00;28.97;;;24.13;;
16735;SDS011;17990;49.548;9.730;2022-10-18T06:18:27;15.50;;;7.97;;
16735;SDS011;17990;49.548;9.730;2022-10-18T06:20:55;11.00;;;5.83;;
16735;SDS011;17990;49.548;9.730;2022-10-18T06:23:23;8.53;;;5.07;;
16735;SDS011;17990;49.548;9.730;2022-10-18T06:25:50;12.70;;;5.50;;
16735;SDS011;17990;49.548;9.730;2022-10-18T06:28:16;9.43;;;5.30;;
16735;SDS011;17990;49.548;9.730;2022-10-18T06:30:43;12.67;;;6.20;;
16735;SDS011;17990;49.548;9.730;2022-10-18T06:33:12;15.30;;;6.57;;
16735;SDS011;17990;49.548;9.730;2022-10-18T06:35:39;18.57;;;7.70;;
16735;SDS011;17990;49.548;9.730;2022-10-18T06:38:06;18.07;;;6.27;;
16735;SDS011;17990;49.548;9.730;2022-10-18T06:40:32;15.63;;;7.97;;
16735;SDS011;17990;49.548;9.730;2022-10-18T06:43:02;19.53;;;8.53;;
16735;SDS011;17990;49.548;9.730;2022-10-18T06:45:30;20.00;;;12.40;;
16735;SDS011;17990;49.548;9.730;2022-10-18T06:47:57;23.23;;;12.77;;
16735;SDS011;17990;49.548;9.730;2022-10-18T06:50:26;11.23;;;7.77;;
16735;SDS011;17990;49.548;9.730;2022-10-18T06:52:52;20.80;;;8.13;;
16735;SDS011;17990;49.548;9.730;2022-10-18T06:55:19;16.07;;;8.30;;
16735;SDS011;17990;49.548;9.730;2022-10-18T06:57:46;11.67;;;7.30;;
16735;SDS011;17990;49.548;9.730;2022-10-18T07:00:13;12.90;;;6.33;;
16735;SDS011;17990;49.548;9.730;2022-10-18T07:02:40;19.97;;;7.17;;
16735;SDS011;17990;49.548;9.730;2022-10-18T07:05:08;12.37;;;8.07;;
16735;SDS011;17990;49.548;9.730;2022-10-18T07:07:37;18.00;;;10.47;;
16735;SDS011;17990;49.548;9.730;2022-10-18T07:10:04;16.50;;;7.00;;
16735;SDS011;17990;49.548;9.730;2022-10-18T07:12:32;10.93;;;4.57;;
16735;SDS011;17990;49.548;9.730;2022-10-18T07:14:59;12.27;;;4.47;;
16735;SDS011;17990;49.548;9.730;2022-10-18T07:17:26;9.10;;;4.47;;
16735;SDS011;17990;49.548;9.730;2022-10-18T07:19:53;10.33;;;4.87;;
16735;SDS011;17990;49.548;9.730;2022-10-18T07:22:20;14.37;;;4.73;;
16735;SDS011;17990;49.548;9.730;2022-10-18T07:24:48;10.83;;;5.03;;
16735;SDS011;17990;49.548;9.730;2022-10-18T07:27:15;13.53;;;5.17;;
16735;SDS011;17990;49.548;9.730;2022-10-18T07:29:42;18.83;;;11.07;;
16735;SDS011;17990;49.548;9.730;2022-10-18T07:32:09;25.20;;;10.93;;
16735;SDS011;17990;49.548;9.730;2022-10-18T07:34:36;14.93;;;10.00;;
16735;SDS011;17990;49.548;9.730;2022-10-18T07:37:03;13.93;;;5.93;;
16735;SDS011;17990;49.548;9.730;2022-10-18T07:39:30;9.10;;;5.20;;
16735;SDS011;17990;49.548;9.730;2022-10-18T07:41:58;12.47;;;7.13;;
16735;SDS011;17990;49.548;9.730;2022-10-18T07:44:25;22.63;;;11.17;;
16735;SDS011;17990;49.548;9.730;2022-10-18T07:46:52;6.80;;;4.27;;
16735;SDS011;17990;49.548;9.730;2022-10-18T07:49:19;13.57;;;5.03;;
16735;SDS011;17990;49.548;9.730;2022-10-18T07:51:47;13.43;;;6.30;;
16735;SDS011;17990;49.548;9.730;2022-10-18T07:54:14;21.90;;;12.87;;
16735;SDS011;17990;49.548;9.730;2022-10-18T07:56:41;9.33;;;6.00;;
16735;SDS011;17990;49.548;9.730;2022-10-18T07:59:09;13.93;;;6.80;;
16735;SDS011;17990;49.548;9.730;2022-10-18T08:01:37;51.33;;;26.90;;
16735;SDS011;17990;49.548;9.730;2022-10-18T08:04:03;33.43;;;15.00;;
16735;SDS011;17990;49.548;9.730;2022-10-18T08:06:30;36.63;;;17.70;;
16735;SDS011;17990;49.548;9.730;2022-10-18T08:08:57;38.30;;;17.10;;
16735;SDS011;17990;49.548;9.730;2022-10-18T08:11:24;31.67;;;17.77;;
16735;SDS011;17990;49.548;9.730;2022-10-18T08:13:52;10.47;;;5.17;;
16735;SDS011;17990;49.548;9.730;2022-10-18T08:16:21;12.63;;;4.60;;
16735;SDS011;17990;49.548;9.730;2022-10-18T08:18:49;10.30;;;4.83;;
16735;SDS011;17990;49.548;9.730;2022-10-18T08:21:18;10.13;;;4.77;;
16735;SDS011;17990;49.548;9.730;2022-10-18T08:23:46;14.33;;;3.93;;
16735;SDS011;17990;49.548;9.730;2022-10-18T08:26:15;16.53;;;4.73;;
16735;SDS011;17990;49.548;9.730;2022-10-18T08:28:44;10.87;;;4.27;;
16735;SDS011;17990;49.548;9.730;2022-10-18T08:31:13;9.63;;;4.40;;
16735;SDS011;17990;49.548;9.730;2022-10-18T08:33:43;8.13;;;4.03;;
16735;SDS011;17990;49.548;9.730;2022-10-18T08:36:12;13.77;;;6.10;;
16735;SDS011;17990;49.548;9.730;2022-10-18T08:38:40;18.90;;;5.33;;
16735;SDS011;17990;49.548;9.730;2022-10-18T08:41:22;11.50;;;5.87;;
16735;SDS011;17990;49.548;9.730;2022-10-18T08:44:25;11.63;;;5.70;;
16735;SDS011;17990;49.548;9.730;2022-10-18T08:46:57;21.80;;;9.40;;
16735;SDS011;17990;49.548;9.730;2022-10-18T08:49:30;15.87;;;7.67;;
16735;SDS011;17990;49.548;9.730;2022-10-18T08:52:05;23.80;;;8.93;;
16735;SDS011;17990;49.548;9.730;2022-10-18T08:54:46;12.87;;;7.33;;
16735;SDS011;17990;49.548;9.730;2022-10-18T08:57:21;10.93;;;6.57;;
16735;SDS011;17990;49.548;9.730;2022-10-18T08:59:48;10.93;;;5.97;;
16735;SDS011;17990;49.548;9.730;2022-10-18T09:02:17;10.07;;;5.13;;
16735;SDS011;17990;49.548;9.730;2022-10-18T09:05:02;10.77;;;5.27;;
16735;SDS011;17990;49.548;9.730;2022-10-18T09:07:50;8.23;;;4.57;;
16735;SDS011;17990;49.548;9.730;2022-10-18T09:10:43;8.30;;;4.40;;
16735;SDS011;17990;49.548;9.730;2022-10-18T09:13:37;8.90;;;4.40;;
16735;SDS011;17990;49.548;9.730;2022-10-18T09:16:26;9.70;;;4.53;;
16735;SDS011;17990;49.548;9.730;2022-10-18T09:19:00;11.10;;;4.23;;
16735;SDS011;17990;49.548;9.730;2022-10-18T09:21:38;8.07;;;4.63;;
16735;SDS011;17990;49.548;9.730;2022-10-18T09:24:17;7.27;;;4.50;;
16735;SDS011;17990;49.548;9.730;2022-10-18T09:26:53;9.77;;;3.60;;
16735;SDS011;17990;49.548;9.730;2022-10-18T09:29:29;8.70;;;3.77;;
16735;SDS011;17990;49.548;9.730;2022-10-18T09:32:13;8.60;;;3.50;;
16735;SDS011;17990;49.548;9.730;2022-10-18T09:34:52;11.47;;;3.50;;
16735;SDS011;17990;49.548;9.730;2022-10-18T09:37:26;10.77;;;4.13;;
16735;SDS011;17990;49.548;9.730;2022-10-18T09:39:59;7.47;;;4.20;;
16735;SDS011;17990;49.548;9.730;2022-10-18T09:42:33;10.17;;;3.60;;
16735;SDS011;17990;49.548;9.730;2022-10-18T09:45:07;11.60;;;4.20;;
16735;SDS011;17990;49.548;9.730;2022-10-18T09:47:46;11.67;;;4.20;;
16735;SDS011;17990;49.548;9.730;2022-10-18T09:50:20;12.53;;;4.30;;
16735;SDS011;17990;49.548;9.730;2022-10-18T09:52:56;7.13;;;3.97;;
16735;SDS011;17990;49.548;9.730;2022-10-18T09:55:33;10.87;;;4.47;;
16735;SDS011;17990;49.548;9.730;2022-10-18T09:58:04;11.73;;;4.43;;
16735;SDS011;17990;49.548;9.730;2022-10-18T10:00:34;9.20;;;4.30;;
16735;SDS011;17990;49.548;9.730;2022-10-18T10:03:12;16.07;;;6.40;;
16735;SDS011;17990;49.548;9.730;2022-10-18T10:05:39;9.17;;;5.13;;
16735;SDS011;17990;49.548;9.730;2022-10-18T10:08:08;14.27;;;7.23;;
16735;SDS011;17990;49.548;9.730;2022-10-18T10:10:37;8.90;;;4.47;;
16735;SDS011;17990;49.548;9.730;2022-10-18T10:13:13;9.70;;;4.47;;
16735;SDS011;17990;49.548;9.730;2022-10-18T10:15:51;7.97;;;3.77;;
16735;SDS011;17990;49.548;9.730;2022-10-18T10:18:20;5.10;;;3.30;;
16735;SDS011;17990;49.548;9.730;2022-10-18T10:20:50;16.47;;;4.97;;
16735;SDS011;17990;49.548;9.730;2022-10-18T10:23:20;8.03;;;4.30;;
16735;SDS011;17990;49.548;9.730;2022-10-18T10:25:52;8.40;;;4.37;;
16735;SDS011;17990;49.548;9.730;2022-10-18T10:28:22;7.90;;;4.70;;
16735;SDS011;17990;49.548;9.730;2022-10-18T10:30:52;7.30;;;3.60;;
16735;SDS011;17990;49.548;9.730;2022-10-18T10:33:30;7.43;;;3.90;;
16735;SDS011;17990;49.548;9.730;2022-10-18T10:36:00;6.25;;;3.80;;
16735;SDS011;17990;49.548;9.730;2022-10-18T10:38:35;11.00;;;5.10;;
16735;SDS011;17990;49.548;9.730;2022-10-18T10:41:02;10.15;;;4.30;;
16735;SDS011;17990;49.548;9.730;2022-10-18T10:43:30;8.05;;;3.70;;
16735;SDS011;17990;49.548;9.730;2022-10-18T10:46:00;6.00;;;3.47;;
16735;SDS011;17990;49.548;9.730;2022-10-18T10:48:30;9.23;;;3.80;;
16735;SDS011;17990;49.548;9.730;2022-10-18T10:51:00;4.70;;;3.00;;
16735;SDS011;17990;49.548;9.730;2022-10-18T10:53:38;5.82;;;3.22;;
16735;SDS011;17990;49.548;9.730;2022-10-18T10:56:14;5.78;;;2.92;;
16735;SDS011;17990;49.548;9.730;2022-10-18T10:58:47;8.93;;;4.25;;
16735;SDS011;17990;49.548;9.730;2022-10-18T11:01:30;9.80;;;3.50;;
16735;SDS011;17990;49.548;9.730;2022-10-18T11:03:59;10.25;;;3.33;;
16735;SDS011;17990;49.548;9.730;2022-10-18T11:06:43;5.28;;;3.25;;
16735;SDS011;17990;49.548;9.730;2022-10-18T11:09:26;9.23;;;3.28;;
16735;SDS011;17990;49.548;9.730;2022-10-18T11:12:15;5.38;;;2.80;;
16735;SDS011;17990;49.548;9.730;2022-10-18T11:14:50;10.10;;;3.08;;
16735;SDS011;17990;49.548;9.730;2022-10-18T11:17:26;7.28;;;2.70;;
16735;SDS011;17990;49.548;9.730;2022-10-18T11:20:09;6.55;;;2.85;;
16735;SDS011;17990;49.548;9.730;2022-10-18T11:22:43;7.45;;;2.95;;
16735;SDS011;17990;49.548;9.730;2022-10-18T11:25:27;5.00;;;2.92;;
16735;SDS011;17990;49.548;9.730;2022-10-18T11:28:09;9.63;;;3.20;;
16735;SDS011;17990;49.548;9.730;2022-10-18T11:30:49;9.30;;;3.40;;
16735;SDS011;17990;49.548;9.730;2022-10-18T11:33:29;8.80;;;2.90;;
16735;SDS011;17990;49.548;9.730;2022-10-18T11:36:06;7.35;;;3.20;;
16735;SDS011;17990;49.548;9.730;2022-10-18T11:38:41;7.78;;;3.50;;
16735;SDS011;17990;49.548;9.730;2022-10-18T11:41:20;7.82;;;3.08;;
16735;SDS011;17990;49.548;9.730;2022-10-18T11:43:56;10.43;;;3.55;;
16735;SDS011;17990;49.548;9.730;2022-10-18T11:46:36;6.85;;;3.42;;
16735;SDS011;17990;49.548;9.730;2022-10-18T11:49:23;15.57;;;5.75;;
16735;SDS011;17990;49.548;9.730;2022-10-18T11:52:05;11.18;;;5.40;;
16735;SDS011;17990;49.548;9.730;2022-10-18T11:54:48;9.65;;;6.07;;
16735;SDS011;17990;49.548;9.730;2022-10-18T11:57:39;6.68;;;3.70;;
16735;SDS011;17990;49.548;9.730;2022-10-18T12:00:18;15.10;;;5.82;;
16735;SDS011;17990;49.548;9.730;2022-10-18T12:03:01;10.70;;;3.30;;
16735;SDS011;17990;49.548;9.730;2022-10-18T12:05:39;7.65;;;3.40;;
16735;SDS011;17990;49.548;9.730;2022-10-18T12:08:10;8.82;;;3.20;;
16735;SDS011;17990;49.548;9.730;2022-10-18T12:10:40;7.35;;;3.28;;
16735;SDS011;17990;49.548;9.730;2022-10-18T12:13:19;8.15;;;3.20;;
16735;SDS011;17990;49.548;9.730;2022-10-18T12:15:53;6.03;;;2.83;;
16735;SDS011;17990;49.548;9.730;2022-10-18T12:18:22;8.18;;;2.97;;
16735;SDS011;17990;49.548;9.730;2022-10-18T12:20:51;8.95;;;3.35;;
16735;SDS011;17990;49.548;9.730;2022-10-18T12:23:24;8.82;;;3.50;;
16735;SDS011;17990;49.548;9.730;2022-10-18T12:26:03;6.93;;;3.20;;
16735;SDS011;17990;49.548;9.730;2022-10-18T12:28:36;8.52;;;3.55;;
16735;SDS011;17990;49.548;9.730;2022-10-18T12:31:16;10.80;;;3.22;;
16735;SDS011;17990;49.548;9.730;2022-10-18T12:33:48;6.22;;;3.13;;
16735;SDS011;17990;49.548;9.730;2022-10-18T12:36:28;8.85;;;2.97;;
16735;SDS011;17990;49.548;9.730;2022-10-18T12:39:31;9.13;;;3.45;;
16735;SDS011;17990;49.548;9.730;2022-10-18T12:42:02;9.05;;;2.95;;
16735;SDS011;17990;49.548;9.730;2022-10-18T12:44:32;11.93;;;3.97;;
16735;SDS011;17990;49.548;9.730;2022-10-18T12:47:01;4.97;;;3.00;;
16735;SDS011;17990;49.548;9.730;2022-10-18T12:49:32;7.15;;;2.92;;
16735;SDS011;17990;49.548;9.730;2022-10-18T12:52:02;4.57;;;2.80;;
16735;SDS011;17990;49.548;9.730;2022-10-18T12:54:33;6.18;;;2.90;;
16735;SDS011;17990;49.548;9.730;2022-10-18T12:57:02;6.57;;;3.08;;
16735;SDS011;17990;49.548;9.730;2022-10-18T13:02:25;3.60;;;1.90;;
16735;SDS011;17990;49.548;9.730;2022-10-18T13:04:54;4.50;;;2.00;;
16735;SDS011;17990;49.548;9.730;2022-10-18T13:07:33;6.05;;;2.30;;
16735;SDS011;17990;49.548;9.730;2022-10-18T13:16:26;6.07;;;2.60;;
16735;SDS011;17990;49.548;9.730;2022-10-18T13:19:09;9.57;;;3.20;;
16735;SDS011;17990;49.548;9.730;2022-10-18T13:21:47;5.45;;;2.58;;
16735;SDS011;17990;49.548;9.730;2022-10-18T13:24:27;9.27;;;2.92;;
16735;SDS011;17990;49.548;9.730;2022-10-18T13:27:02;8.20;;;2.70;;
16735;SDS011;17990;49.548;9.730;2022-10-18T13:29:55;10.37;;;3.10;;
16735;SDS011;17990;49.548;9.730;2022-10-18T13:32:42;12.03;;;3.43;;
16735;SDS011;17990;49.548;9.730;2022-10-18T13:38:26;9.07;;;3.53;;
16735;SDS011;17990;49.548;9.730;2022-10-18T13:41:26;5.53;;;3.80;;
16735;SDS011;17990;49.548;9.730;2022-10-18T13:44:02;4.47;;;2.97;;
16735;SDS011;17990;49.548;9.730;2022-10-18T13:50:12;9.20;;;3.07;;
16735;SDS011;17990;49.548;9.730;2022-10-18T13:53:23;8.33;;;3.07;;
16735;SDS011;17990;49.548;9.730;2022-10-18T13:56:11;9.97;;;3.63;;
16735;SDS011;17990;49.548;9.730;2022-10-18T13:59:13;7.33;;;3.70;;
16735;SDS011;17990;49.548;9.730;2022-10-18T14:02:09;5.40;;;3.97;;
16735;SDS011;17990;49.548;9.730;2022-10-18T14:07:57;11.30;;;5.07;;
16735;SDS011;17990;49.548;9.730;2022-10-18T14:10:34;5.37;;;3.80;;
16735;SDS011;17990;49.548;9.730;2022-10-18T14:13:13;5.37;;;3.83;;
16735;SDS011;17990;49.548;9.730;2022-10-18T14:15:46;10.70;;;4.57;;
16735;SDS011;17990;49.548;9.730;2022-10-18T14:18:17;7.20;;;4.00;;
16735;SDS011;17990;49.548;9.730;2022-10-18T14:20:54;7.53;;;3.60;;
16735;SDS011;17990;49.548;9.730;2022-10-18T14:23:26;7.90;;;4.13;;
16735;SDS011;17990;49.548;9.730;2022-10-18T14:26:04;7.60;;;3.60;;
16735;SDS011;17990;49.548;9.730;2022-10-18T14:28:33;4.07;;;3.27;;
16735;SDS011;17990;49.548;9.730;2022-10-18T14:31:00;6.60;;;3.20;;
16735;SDS011;17990;49.548;9.730;2022-10-18T14:33:31;3.00;;;2.70;;
16735;SDS011;17990;49.548;9.730;2022-10-18T14:36:03;10.13;;;3.60;;
16735;SDS011;17990;49.548;9.730;2022-10-18T14:38:34;5.13;;;2.80;;
16735;SDS011;17990;49.548;9.730;2022-10-18T14:41:03;5.03;;;2.77;;
16735;SDS011;17990;49.548;9.730;2022-10-18T14:43:40;3.80;;;2.97;;
16735;SDS011;17990;49.548;9.730;2022-10-18T14:46:09;6.40;;;3.40;;
16735;SDS011;17990;49.548;9.730;2022-10-18T14:48:50;7.53;;;3.10;;
16735;SDS011;17990;49.548;9.730;2022-10-18T14:51:20;6.40;;;3.30;;
16735;SDS011;17990;49.548;9.730;2022-10-18T14:53:48;4.27;;;2.90;;
16735;SDS011;17990;49.548;9.730;2022-10-18T14:56:20;7.37;;;3.37;;
16735;SDS011;17990;49.548;9.730;2022-10-18T14:58:51;5.20;;;3.50;;
16735;SDS011;17990;49.548;9.730;2022-10-18T15:01:19;11.90;;;3.30;;
16735;SDS011;17990;49.548;9.730;2022-10-18T15:03:49;4.97;;;3.17;;
16735;SDS011;17990;49.548;9.730;2022-10-18T15:06:24;10.80;;;4.67;;
16735;SDS011;17990;49.548;9.730;2022-10-18T15:08:52;8.07;;;4.10;;
16735;SDS011;17990;49.548;9.730;2022-10-18T15:11:22;10.00;;;4.20;;
16735;SDS011;17990;49.548;9.730;2022-10-18T15:13:51;11.70;;;4.47;;
16735;SDS011;17990;49.548;9.730;2022-10-18T15:16:21;7.83;;;4.03;;
16735;SDS011;17990;49.548;9.730;2022-10-18T15:18:58;15.10;;;6.13;;
16735;SDS011;17990;49.548;9.730;2022-10-18T15:21:30;10.37;;;5.60;;
16735;SDS011;17990;49.548;9.730;2022-10-18T15:26:56;9.73;;;5.40;;
16735;SDS011;17990;49.548;9.730;2022-10-18T15:29:29;7.07;;;5.77;;
16735;SDS011;17990;49.548;9.730;2022-10-18T15:32:03;10.37;;;6.40;;
16735;SDS011;17990;49.548;9.730;2022-10-18T15:34:40;9.00;;;4.83;;